Time;durP1;ratioP1;P1;durP2;ratioP2;P2;SDS_P1;SDS_P2;PMS_P1;PMS_P2;Temp;Humidity;BMP_temperature;BMP_pressure;BME280_temperature;BME280_humidity;BME280_pressure;Samples;Min_cycle;Max_cycle;Signal;HPM_P1;HPM_P2
2021/05/07 00:01:13;;;;;;;7.25;4.78;;;;;;;4.71;70.16;99984.23;1808579;78;21062;-82
2021/05/07 00:03:41;;;;;;;8.75;5.28;;;;;;;4.73;70.05;99986.75;1808563;78;21437;-80
2021/05/07 00:06:10;;;;;;;11.78;5.30;;;;;;;4.72;70.00;99993.76;1798686;78;21145;-80
2021/05/07 00:08:40;;;;;;;8.60;5.80;;;;;;;4.70;70.03;99990.88;1798137;79;21600;-80
2021/05/07 00:11:15;;;;;;;12.78;6.62;;;;;;;4.68;70.01;99997.98;1798129;79;22068;-80
2021/05/07 00:13:44;;;;;;;11.65;7.03;;;;;;;4.67;69.97;99998.91;1801993;78;21073;-80
2021/05/07 00:16:12;;;;;;;14.10;7.55;;;;;;;4.65;70.01;100005.55;1799133;78;21117;-80
2021/05/07 00:18:40;;;;;;;12.53;8.28;;;;;;;4.65;69.97;100006.02;1800635;78;21591;-80
2021/05/07 00:21:08;;;;;;;17.90;7.85;;;;;;;4.66;69.92;100007.70;1798129;79;21125;-80
2021/05/07 00:23:36;;;;;;;18.57;10.88;;;;;;;4.65;69.83;100011.25;1802139;78;22068;-80
2021/05/07 00:26:04;;;;;;;22.40;12.10;;;;;;;4.63;69.82;100007.86;1798175;79;21481;-80
2021/05/07 00:28:32;;;;;;;23.70;12.25;;;;;;;4.63;69.75;100010.48;1769786;79;21342;-80
2021/05/07 00:31:00;;;;;;;23.30;14.13;;;;;;;4.60;69.79;100007.13;1798052;79;21125;-80
2021/05/07 00:33:27;;;;;;;23.77;14.83;;;;;;;4.60;69.79;100012.83;1801656;78;21153;-80
2021/05/07 00:35:54;;;;;;;29.12;15.55;;;;;;;4.58;69.80;100008.16;1798045;79;22498;-80
2021/05/07 00:38:22;;;;;;;25.30;13.98;;;;;;;4.55;69.82;100009.20;1798027;79;21144;-80
2021/05/07 00:40:49;;;;;;;22.62;13.75;;;;;;;4.52;69.88;100011.13;1803677;78;21130;-81
2021/05/07 00:43:16;;;;;;;25.68;13.58;;;;;;;4.50;69.91;100010.39;1787777;78;21477;-80
2021/05/07 00:45:44;;;;;;;24.45;14.83;;;;;;;4.49;69.88;100013.47;1793788;78;21042;-81
2021/05/07 00:48:18;;;;;;;22.27;13.85;;;;;;;4.47;69.90;100015.81;1765517;81;22068;-81
2021/05/07 00:50:47;;;;;;;24.75;15.72;;;;;;;4.44;70.03;100004.20;1806838;78;21121;-81
2021/05/07 00:53:16;;;;;;;28.50;17.37;;;;;;;4.39;70.15;100004.97;1786994;78;21035;-80
2021/05/07 00:55:44;;;;;;;32.20;18.12;;;;;;;4.38;70.23;100006.74;1813536;78;21062;-81
2021/05/07 00:58:14;;;;;;;33.02;16.67;;;;;;;4.42;70.25;100000.38;1765683;81;21077;-80
2021/05/07 01:00:42;;;;;;;29.82;17.15;;;;;;;4.45;70.25;100005.92;1756170;79;22043;-81
2021/05/07 01:03:09;;;;;;;28.02;16.85;;;;;;;4.45;70.23;100003.30;1787096;80;21528;-81
2021/05/07 01:05:37;;;;;;;30.92;17.55;;;;;;;4.45;70.18;100001.53;1790678;78;21141;-81
2021/05/07 01:08:06;;;;;;;30.20;18.48;;;;;;;4.48;70.12;100009.18;1787184;78;21354;-81
2021/05/07 01:10:36;;;;;;;28.65;18.48;;;;;;;4.48;70.12;100005.26;1814316;78;21046;-81
2021/05/07 01:13:04;;;;;;;24.57;16.23;;;;;;;4.47;70.08;99998.81;1765702;81;22072;-81
2021/05/07 01:15:35;;;;;;;28.20;17.98;;;;;;;4.48;69.98;99996.11;1752991;79;21519;-80
2021/05/07 01:18:02;;;;;;;29.20;18.20;;;;;;;4.48;69.99;100003.95;1819310;78;21062;-81
2021/05/07 01:20:32;;;;;;;25.10;16.67;;;;;;;4.44;69.99;99999.85;1765307;79;21134;-81
2021/05/07 01:23:06;;;;;;;26.80;17.15;;;;;;;4.43;70.00;100006.45;1819467;78;21098;-81
2021/05/07 01:25:44;;;;;;;27.27;17.32;;;;;;;4.38;69.99;100007.21;1764530;81;22136;-81
2021/05/07 01:28:13;;;;;;;26.52;16.85;;;;;;;4.31;69.99;100004.95;1786903;80;21130;-81
2021/05/07 01:30:45;;;;;;;25.52;15.50;;;;;;;4.29;70.05;100013.83;1789756;78;21184;-81
2021/05/07 01:33:31;;;;;;;27.58;17.02;;;;;;;4.34;70.10;100018.77;1872401;75;28966;-81
2021/05/07 01:35:59;;;;;;;24.40;15.85;;;;;;;4.32;70.00;100018.86;1841543;77;21142;-81
2021/05/07 01:38:28;;;;;;;24.82;15.23;;;;;;;4.33;69.96;100018.39;1841510;78;23033;-81
2021/05/07 01:40:56;;;;;;;27.73;15.32;;;;;;;4.30;69.94;100021.57;1822648;78;21124;-81
2021/05/07 01:43:26;;;;;;;20.60;13.78;;;;;;;4.30;69.90;100024.19;1821585;78;21044;-82
2021/05/07 01:45:58;;;;;;;23.45;13.83;;;;;;;4.30;69.93;100027.27;1841502;77;21172;-81
2021/05/07 01:48:27;;;;;;;23.02;14.35;;;;;;;4.29;69.96;100030.81;1836511;78;21162;-80
2021/05/07 01:50:55;;;;;;;24.75;14.58;;;;;;;4.29;69.97;100028.20;1817329;78;22030;-79
2021/05/07 01:53:24;;;;;;;22.77;14.40;;;;;;;4.30;69.90;100025.49;1811200;78;21162;-75
2021/05/07 01:55:52;;;;;;;26.20;14.13;;;;;;;4.33;69.81;100028.85;1820182;77;21098;-76
2021/05/07 01:58:31;;;;;;;23.62;14.28;;;;;;;4.34;69.76;100030.53;1796578;78;21550;-75
2021/05/07 02:00:58;;;;;;;24.02;14.23;;;;;;;4.31;69.78;100031.56;1830966;78;21115;-77
2021/05/07 02:03:26;;;;;;;24.10;14.03;;;;;;;4.29;69.82;100035.58;1808307;79;22052;-76
2021/05/07 02:05:56;;;;;;;21.10;13.65;;;;;;;4.26;69.79;100038.38;1808172;79;21118;-76
2021/05/07 02:08:23;;;;;;;19.73;12.55;;;;;;;4.23;69.85;100040.31;1820191;78;21043;-75
2021/05/07 02:10:52;;;;;;;28.00;14.18;;;;;;;4.20;69.92;100045.27;1833802;77;21154;-76
2021/05/07 02:13:20;;;;;;;23.07;13.85;;;;;;;4.15;70.02;100047.76;1802861;78;21618;-76
2021/05/07 02:15:49;;;;;;;18.73;12.15;;;;;;;4.12;70.08;100051.40;1827840;78;22099;-76
2021/05/07 02:18:19;;;;;;;17.67;12.40;;;;;;;4.08;70.15;100048.59;1814443;78;21064;-75
2021/05/07 02:20:49;;;;;;;19.17;12.43;;;;;;;4.05;70.18;100051.36;1814957;78;21139;-76
2021/05/07 02:23:17;;;;;;;20.85;12.82;;;;;;;4.02;70.29;100049.78;1810094;78;21158;-77
2021/05/07 02:25:45;;;;;;;19.40;12.70;;;;;;;4.01;70.40;100046.80;1808425;78;21032;-76
2021/05/07 02:28:15;;;;;;;21.97;12.93;;;;;;;3.99;70.51;100053.89;1777375;79;22590;-76
2021/05/07 02:30:42;;;;;;;22.22;13.30;;;;;;;3.99;70.62;100058.27;1777915;79;21095;-76
2021/05/07 02:33:10;;;;;;;22.37;13.90;;;;;;;3.99;70.71;100067.42;1788849;78;21407;-76
2021/05/07 02:35:38;;;;;;;22.05;14.33;;;;;;;3.98;70.84;100080.11;1798256;79;21170;-75
2021/05/07 02:38:06;;;;;;;23.83;15.05;;;;;;;3.95;71.01;100079.80;1790736;79;21167;-77
2021/05/07 02:40:34;;;;;;;22.65;15.45;;;;;;;3.90;71.22;100074.01;1801945;79;22057;-75
2021/05/07 02:43:02;;;;;;;22.55;15.43;;;;;;;3.89;71.36;100081.47;1780502;79;21135;-75
2021/05/07 02:45:31;;;;;;;25.20;16.70;;;;;;;3.88;71.46;100075.03;1777937;79;21095;-76
2021/05/07 02:47:59;;;;;;;24.32;16.12;;;;;;;3.87;71.59;100067.66;1733386;82;21100;-75
2021/05/07 02:50:27;;;;;;;25.77;16.95;;;;;;;3.88;71.73;100064.11;1703767;83;21066;-76
2021/05/07 02:52:54;;;;;;;23.85;16.77;;;;;;;3.91;71.79;100064.39;1726666;82;22072;-74
2021/05/07 02:55:21;;;;;;;24.07;15.78;;;;;;;3.93;71.84;100065.98;1738127;82;21168;-76
2021/05/07 02:57:50;;;;;;;25.52;16.48;;;;;;;3.96;71.86;100068.91;1722817;82;21092;-75
2021/05/07 03:00:21;;;;;;;24.65;16.45;;;;;;;3.98;71.90;100060.52;1742973;80;21167;-77
2021/05/07 03:02:49;;;;;;;26.75;17.67;;;;;;;4.00;71.95;100069.10;1731834;82;21160;-76
2021/05/07 03:05:17;;;;;;;25.25;17.48;;;;;;;4.03;71.97;100064.99;1703332;82;23273;-75
2021/05/07 03:07:47;;;;;;;26.85;18.27;;;;;;;4.06;72.00;100064.84;1727279;82;21100;-75
2021/05/07 03:10:15;;;;;;;26.77;17.95;;;;;;;4.07;72.04;100058.68;1721039;82;21166;-76
2021/05/07 03:12:44;;;;;;;25.80;17.87;;;;;;;4.09;72.09;100060.73;1721570;82;21504;-75
2021/05/07 03:15:12;;;;;;;26.73;19.15;;;;;;;4.11;72.11;100060.17;1724336;82;21128;-76
2021/05/07 03:17:41;;;;;;;32.05;21.55;;;;;;;4.14;72.18;100067.83;1747793;80;22545;-77
2021/05/07 03:20:12;;;;;;;34.65;23.18;;;;;;;4.17;72.24;100063.75;1721028;82;21140;-77
2021/05/07 03:22:39;;;;;;;30.82;22.07;;;;;;;4.24;72.25;100069.44;1749017;80;21136;-76
2021/05/07 03:25:08;;;;;;;28.75;19.70;;;;;;;4.29;72.22;100072.18;1706958;83;21077;-76
2021/05/07 03:27:35;;;;;;;28.60;19.23;;;;;;;4.34;72.19;100072.36;1730424;82;21295;-76
2021/05/07 03:30:05;;;;;;;27.82;18.23;;;;;;;4.36;72.13;100073.14;1737953;82;22586;-76
2021/05/07 03:32:33;;;;;;;30.15;17.60;;;;;;;4.39;72.07;100084.25;1692552;83;21365;-75
2021/05/07 03:35:00;;;;;;;23.50;16.82;;;;;;;4.44;72.04;100085.27;1722496;80;21188;-76
2021/05/07 03:37:28;;;;;;;23.22;16.93;;;;;;;4.50;72.02;100086.23;1749561;82;21191;-78
2021/05/07 03:39:55;;;;;;;25.30;16.93;;;;;;;4.53;72.03;100085.58;1721772;82;21085;-77
2021/05/07 03:42:23;;;;;;;28.52;16.50;;;;;;;4.60;72.05;100083.45;1740624;81;22069;-76
2021/05/07 03:44:52;;;;;;;26.25;16.95;;;;;;;4.66;72.09;100087.48;1746061;81;21121;-76
2021/05/07 03:47:20;;;;;;;23.83;16.52;;;;;;;4.72;72.09;100074.02;1721297;82;21124;-75
2021/05/07 03:49:48;;;;;;;27.87;16.45;;;;;;;4.80;72.08;100080.95;1695915;82;21189;-76
2021/05/07 03:52:16;;;;;;;21.77;15.28;;;;;;;4.87;72.01;100076.56;1707760;82;21073;-76
2021/05/07 03:54:45;;;;;;;22.65;14.35;;;;;;;4.96;71.93;100079.09;1741838;80;22979;-76
2021/05/07 03:57:12;;;;;;;22.35;14.43;;;;;;;5.05;71.84;100075.92;1735420;82;21137;-76
2021/05/07 03:59:40;;;;;;;24.20;14.63;;;;;;;5.14;71.77;100079.28;1723221;82;21350;-75
2021/05/07 04:02:08;;;;;;;19.23;12.80;;;;;;;5.24;71.79;100088.72;1746802;80;21140;-77
2021/05/07 04:04:37;;;;;;;18.77;11.30;;;;;;;5.34;71.76;100088.98;1738669;82;21164;-76
2021/05/07 04:07:05;;;;;;;17.27;11.12;;;;;;;5.46;71.58;100086.44;1731337;82;22051;-75
2021/05/07 04:09:36;;;;;;;19.65;11.63;;;;;;;5.61;71.38;100092.50;1728378;82;21136;-75
2021/05/07 04:14:40;;;;;;;16.62;10.30;;;;;;;5.85;71.07;100099.72;1733055;82;21125;-77
2021/05/07 04:17:08;;;;;;;17.92;11.33;;;;;;;5.93;70.95;100095.70;1728166;80;21085;-82
2021/05/07 04:19:35;;;;;;;19.10;11.65;;;;;;;6.02;70.81;100094.27;1731590;82;22567;-75
2021/05/07 04:22:03;;;;;;;15.40;11.48;;;;;;;6.11;70.74;100091.05;1718624;82;22482;-80
2021/05/07 04:24:30;;;;;;;17.23;9.85;;;;;;;6.22;70.75;100102.98;1718872;82;21113;-80
2021/05/07 04:26:58;;;;;;;14.28;9.00;;;;;;;6.33;70.65;100098.81;1727182;82;21176;-81
2021/05/07 04:29:26;;;;;;;13.30;7.70;;;;;;;6.45;70.55;100105.86;1743451;82;21477;-85
2021/05/07 04:31:54;;;;;;;14.15;8.13;;;;;;;6.56;70.06;100110.78;1732764;82;23020;-81
2021/05/07 04:34:22;;;;;;;13.93;8.20;;;;;;;6.68;69.60;100110.42;1722511;82;21145;-80
2021/05/07 04:36:49;;;;;;;11.48;7.45;;;;;;;6.80;69.15;100109.59;1728410;81;21160;-78
2021/05/07 04:39:16;;;;;;;14.30;7.33;;;;;;;6.92;68.83;100109.70;1723169;81;21126;-77
2021/05/07 04:41:44;;;;;;;12.70;6.35;;;;;;;7.03;68.69;100109.79;1731813;81;21050;-79
2021/05/07 04:44:12;;;;;;;9.98;6.97;;;;;;;7.13;68.54;100118.24;1748979;81;22045;-77
2021/05/07 04:46:39;;;;;;;12.33;6.50;;;;;;;7.23;68.10;100118.92;1737203;81;21141;-80
2021/05/07 04:49:07;;;;;;;9.75;6.15;;;;;;;7.33;67.90;100118.16;1731340;81;21077;-78
2021/05/07 04:51:35;;;;;;;8.98;5.45;;;;;;;7.45;67.63;100120.43;1717372;81;21376;-80
2021/05/07 04:54:04;;;;;;;8.60;5.70;;;;;;;7.58;67.25;100120.39;1726768;82;21129;-76
2021/05/07 04:56:31;;;;;;;8.68;5.42;;;;;;;7.70;67.07;100120.34;1707033;80;22024;-77
2021/05/07 04:58:59;;;;;;;12.82;5.62;;;;;;;7.84;66.59;100110.17;1736543;81;21160;-77
2021/05/07 05:01:26;;;;;;;8.50;5.35;;;;;;;7.97;66.19;100112.27;1754784;81;21167;-75
2021/05/07 05:03:53;;;;;;;9.10;5.08;;;;;;;8.11;65.65;100109.13;1716716;82;21181;-81
2021/05/07 05:06:21;;;;;;;10.25;4.50;;;;;;;8.24;64.75;100104.15;1726474;81;21122;-81
2021/05/07 05:08:48;;;;;;;11.65;4.80;;;;;;;8.40;64.35;100105.69;1688062;83;22483;-77
2021/05/07 05:11:16;;;;;;;6.95;4.45;;;;;;;8.53;63.89;100103.33;1723185;82;21247;-77
2021/05/07 05:13:44;;;;;;;5.90;3.90;;;;;;;8.68;63.36;100100.00;1711589;82;21365;-78
2021/05/07 05:16:12;;;;;;;6.40;4.20;;;;;;;8.82;62.57;100096.33;1711468;82;21140;-78
2021/05/07 05:18:39;;;;;;;7.65;4.55;;;;;;;8.98;61.93;100094.69;1735568;81;21547;-78
2021/05/07 05:21:08;;;;;;;7.53;4.03;;;;;;;9.14;61.73;100101.74;1729847;81;22062;-77
2021/05/07 05:23:38;;;;;;;7.70;3.70;;;;;;;9.28;61.35;100103.32;1729497;81;21205;-78
2021/05/07 05:26:06;;;;;;;7.25;3.52;;;;;;;9.45;60.69;100101.48;1735753;81;21323;-77
2021/05/07 05:28:35;;;;;;;7.35;3.52;;;;;;;9.59;59.93;100094.66;1740605;81;21080;-76
2021/05/07 05:31:03;;;;;;;4.47;3.50;;;;;;;9.75;59.82;100083.25;1733341;81;21057;-76
2021/05/07 05:33:31;;;;;;;4.75;3.15;;;;;;;9.91;59.49;100085.95;1736717;81;22021;-78
2021/05/07 05:35:58;;;;;;;7.30;2.80;;;;;;;10.06;58.38;100083.88;1728381;81;21659;-78
2021/05/07 05:38:27;;;;;;;5.35;3.00;;;;;;;10.20;57.53;100077.80;1728178;81;21149;-77
2021/05/07 05:40:55;;;;;;;4.30;2.35;;;;;;;10.36;57.66;100076.09;1729514;81;21488;-77
2021/05/07 05:46:00;;;;;;;6.05;2.40;;;;;;;10.67;55.64;100076.99;1887866;76;22635;-79
2021/05/07 05:48:27;;;;;;;5.50;2.30;;;;;;;10.78;55.29;100082.20;1835074;77;21034;-78
2021/05/07 05:50:54;;;;;;;4.05;2.10;;;;;;;10.95;54.41;100075.97;1835961;77;23372;-77
2021/05/07 05:53:22;;;;;;;5.70;2.40;;;;;;;11.12;54.10;100081.48;1831905;77;21176;-81
2021/05/07 05:55:50;;;;;;;6.58;2.40;;;;;;;11.28;53.89;100077.50;1842537;77;21481;-80
2021/05/07 05:58:17;;;;;;;5.90;2.20;;;;;;;11.43;52.95;100074.84;1752065;80;21045;-81
2021/05/07 06:00:45;;;;;;;7.35;2.60;;;;;;;11.57;52.29;100076.27;1849692;77;21121;-81
2021/05/07 06:03:12;;;;;;;9.05;2.77;;;;;;;11.68;51.81;100082.31;1822117;77;22154;-76
2021/05/07 06:05:40;;;;;;;7.60;3.20;;;;;;;11.84;50.88;100085.77;1825590;77;21069;-77
2021/05/07 06:08:07;;;;;;;6.50;2.75;;;;;;;11.99;50.64;100089.70;1844577;77;21477;-79
2021/05/07 06:10:35;;;;;;;8.53;3.50;;;;;;;12.13;49.30;100087.12;1767780;80;21153;-81
2021/05/07 06:13:02;;;;;;;5.17;3.27;;;;;;;12.27;49.85;100081.91;1823742;77;21529;-83
2021/05/07 06:15:30;;;;;;;7.80;3.20;;;;;;;12.40;48.99;100086.42;1842544;77;22968;-84
2021/05/07 06:17:58;;;;;;;6.47;2.92;;;;;;;12.55;48.72;100089.49;1826635;77;21177;-78
2021/05/07 06:20:25;;;;;;;3.33;2.60;;;;;;;12.72;47.31;100085.26;1827550;77;21099;-75
2021/05/07 06:22:53;;;;;;;4.35;2.00;;;;;;;12.87;47.01;100092.63;1816292;78;21148;-74
2021/05/07 06:25:24;;;;;;;4.95;2.30;;;;;;;13.04;45.35;100095.03;1822754;77;21043;-74
2021/05/07 06:27:50;;;;;;;3.80;1.90;;;;;;;13.21;45.77;100095.27;1806722;79;22079;-74
2021/05/07 06:30:18;;;;;;;5.83;1.72;;;;;;;13.35;45.00;100100.95;1813668;77;21098;-75
2021/05/07 06:32:45;;;;;;;3.62;1.50;;;;;;;13.50;43.41;100093.32;1828477;77;21109;-77
2021/05/07 06:35:13;;;;;;;5.42;1.80;;;;;;;13.61;42.95;100080.38;1821460;77;21105;-76
2021/05/07 06:37:43;;;;;;;7.62;2.00;;;;;;;13.70;42.22;100085.63;1828970;77;21134;-74
2021/05/07 06:40:12;;;;;;;3.50;1.77;;;;;;;13.79;42.97;100087.02;1839953;77;23425;-75
2021/05/07 06:42:40;;;;;;;4.42;1.65;;;;;;;13.83;42.36;100089.23;1849703;77;21229;-75
2021/05/07 06:45:09;;;;;;;7.95;1.72;;;;;;;13.87;42.92;100083.12;1842681;77;21038;-76
2021/05/07 06:47:37;;;;;;;5.67;1.60;;;;;;;13.94;43.27;100084.20;1829327;77;21307;-75
2021/05/07 06:50:06;;;;;;;6.92;2.00;;;;;;;14.02;43.48;100075.83;1834227;77;21109;-75
2021/05/07 06:52:33;;;;;;;7.92;1.70;;;;;;;14.13;42.86;100076.09;1839898;77;23015;-75
2021/05/07 06:55:01;;;;;;;5.30;1.75;;;;;;;14.23;42.57;100066.72;1832507;77;21057;-75
2021/05/07 06:57:29;;;;;;;6.37;1.50;;;;;;;14.37;43.66;100070.15;1786032;79;21204;-74
2021/05/07 07:20:35;;;;;;;2.37;1.17;;;;;;;15.66;37.53;100079.95;1881592;74;22697;-77
2021/05/07 07:23:04;;;;;;;3.02;1.10;;;;;;;15.78;37.26;100080.47;1828903;77;21182;-77
2021/05/07 07:25:31;;;;;;;8.15;1.10;;;;;;;15.88;34.96;100081.16;1834854;77;22114;-75
2021/05/07 07:27:58;;;;;;;2.50;1.00;;;;;;;15.93;34.65;100076.19;1857343;77;21081;-74
2021/05/07 07:30:26;;;;;;;3.37;0.93;;;;;;;15.98;35.39;100077.02;1834942;77;21075;-75
2021/05/07 07:32:53;;;;;;;2.22;1.10;;;;;;;16.07;34.00;100085.36;1833705;77;21051;-76
2021/05/07 07:35:21;;;;;;;1.65;1.00;;;;;;;16.14;34.29;100078.38;1833538;77;21104;-76
2021/05/07 07:37:50;;;;;;;1.62;0.80;;;;;;;16.25;35.12;100081.22;1836949;77;22474;-77
2021/05/07 07:40:17;;;;;;;3.20;1.10;;;;;;;16.33;32.54;100077.23;1837580;77;21575;-77
2021/05/07 07:42:45;;;;;;;3.42;1.30;;;;;;;16.40;33.00;100082.72;1844693;77;21043;-76
2021/05/07 07:45:13;;;;;;;2.20;1.10;;;;;;;16.45;31.84;100086.56;1858530;77;21391;-77
2021/05/07 07:47:41;;;;;;;3.17;1.47;;;;;;;16.46;32.09;100076.23;1795574;77;21216;-77
2021/05/07 07:50:09;;;;;;;2.58;1.22;;;;;;;16.50;32.47;100079.38;1854514;77;22055;-78
2021/05/07 07:52:38;;;;;;;3.67;1.47;;;;;;;16.52;31.30;100078.73;1842729;77;21174;-77
2021/05/07 07:55:07;;;;;;;3.70;1.07;;;;;;;16.54;31.70;100082.89;1859022;77;20916;-77
2021/05/07 07:57:35;;;;;;;4.15;0.98;;;;;;;16.54;30.83;100076.23;1814213;78;21075;-78
2021/05/07 08:00:05;;;;;;;8.05;1.20;;;;;;;16.59;30.45;100086.38;1828600;77;21043;-79
2021/05/07 08:02:40;;;;;;;3.80;1.10;;;;;;;16.63;31.18;100077.56;1785166;80;22039;-77
2021/05/07 08:05:10;;;;;;;3.98;1.47;;;;;;;16.67;31.72;100081.05;1815912;77;21154;-75
2021/05/07 08:07:37;;;;;;;6.28;1.40;;;;;;;16.73;30.23;100080.92;1797632;77;21439;-79
2021/05/07 08:10:08;;;;;;;4.65;1.20;;;;;;;16.77;30.46;100075.56;1757843;80;21066;-79
2021/05/07 08:12:36;;;;;;;4.40;1.12;;;;;;;16.79;31.21;100074.89;1767458;79;21192;-75
2021/05/07 08:15:06;;;;;;;6.65;1.27;;;;;;;16.81;30.89;100068.41;1759000;81;22072;-76
2021/05/07 08:17:34;;;;;;;2.00;1.00;;;;;;;16.89;31.45;100079.56;1757856;80;21085;-76
2021/05/07 08:20:05;;;;;;;4.40;1.30;;;;;;;17.00;31.14;100087.21;1733899;81;21260;-76
2021/05/07 08:22:32;;;;;;;4.40;1.27;;;;;;;17.04;30.83;100073.84;1737850;81;21086;-77
2021/05/07 08:25:00;;;;;;;4.40;1.32;;;;;;;17.11;31.21;100068.67;1738337;81;21106;-77
2021/05/07 08:27:28;;;;;;;4.03;1.00;;;;;;;17.17;30.11;100070.13;1736140;81;21898;-76
2021/05/07 08:29:56;;;;;;;5.47;1.20;;;;;;;17.19;30.18;100061.98;1730135;83;21093;-75
2021/05/07 08:32:23;;;;;;;5.03;1.15;;;;;;;17.19;29.55;100062.48;1736551;81;21580;-75
2021/05/07 08:34:51;;;;;;;4.75;0.88;;;;;;;17.24;29.90;100061.45;1736271;80;21182;-73
2021/05/07 08:37:19;;;;;;;3.40;1.10;;;;;;;17.32;29.30;100056.08;1739477;81;21105;-74
2021/05/07 08:39:47;;;;;;;4.72;1.40;;;;;;;17.36;28.90;100062.72;1736974;81;22020;-70
2021/05/07 08:42:16;;;;;;;1.50;0.90;;;;;;;17.35;29.24;100057.89;1740454;82;21150;-71
2021/05/07 08:44:43;;;;;;;1.57;0.88;;;;;;;17.33;29.86;100062.58;1738103;80;21050;-73
2021/05/07 08:47:12;;;;;;;1.07;0.70;;;;;;;17.33;28.09;100056.41;1745959;81;21062;-72
2021/05/07 08:49:40;;;;;;;5.90;0.98;;;;;;;17.31;27.88;100055.25;1718080;80;21102;-80
2021/05/07 08:52:07;;;;;;;6.17;1.02;;;;;;;17.33;27.79;100049.23;1748690;80;22069;-81
2021/05/07 08:54:34;;;;;;;3.47;0.82;;;;;;;17.36;28.13;100051.54;1756254;80;21664;-81
2021/05/07 08:57:02;;;;;;;1.45;0.80;;;;;;;17.39;27.81;100046.38;1752706;81;21172;-80
2021/05/07 08:59:29;;;;;;;1.50;0.78;;;;;;;17.37;28.53;100045.23;1729230;83;21165;-82
2021/05/07 09:01:57;;;;;;;1.90;0.85;;;;;;;17.39;28.06;100053.05;1735855;81;21176;-82
2021/05/07 09:04:26;;;;;;;2.47;0.90;;;;;;;17.38;28.23;100040.21;1736873;81;21496;-82
2021/05/07 09:06:55;;;;;;;3.45;1.00;;;;;;;17.38;27.86;100034.88;1753872;81;21081;-81
2021/05/07 09:09:29;;;;;;;3.35;0.82;;;;;;;17.38;28.52;100032.70;1729689;83;21085;-81
2021/05/07 09:12:02;;;;;;;3.33;0.70;;;;;;;17.42;28.72;100032.67;1734679;81;21148;-82
2021/05/07 09:14:30;;;;;;;4.28;0.80;;;;;;;17.49;28.15;100032.81;1736118;81;21010;-80
2021/05/07 09:17:01;;;;;;;2.00;0.90;;;;;;;17.55;29.43;100014.23;1731186;81;22036;-80
2021/05/07 09:19:34;;;;;;;2.40;0.80;;;;;;;17.66;29.13;100019.20;1732662;81;21148;-81
2021/05/07 09:22:01;;;;;;;;;;;;;;;17.76;28.16;100004.80;1748480;81;21076;-81
2021/05/07 09:24:33;;;;;;;3.95;0.90;;;;;;;17.84;29.54;100007.41;1753051;81;20507;-80
2021/05/07 09:27:03;;;;;;;1.65;0.80;;;;;;;17.91;28.71;99993.17;1767724;81;21109;-81
2021/05/07 09:29:31;;;;;;;1.82;1.00;;;;;;;17.95;28.77;99986.48;1740258;81;22497;-81
2021/05/07 09:32:00;;;;;;;3.50;0.90;;;;;;;17.96;28.87;99983.30;1747351;81;21448;-81
2021/05/07 09:34:37;;;;;;;3.85;1.00;;;;;;;17.99;28.48;99993.63;1746599;81;21145;-81
2021/05/07 09:37:19;;;;;;;1.85;0.85;;;;;;;18.00;28.32;99992.10;1740186;82;21121;-81
2021/05/07 09:39:47;;;;;;;3.20;0.90;;;;;;;18.09;29.08;99986.19;1741948;81;21165;-80
2021/05/07 09:42:22;;;;;;;2.42;0.98;;;;;;;18.30;29.96;99980.16;1760780;81;22888;-80
2021/05/07 09:44:49;;;;;;;2.35;1.12;;;;;;;18.49;28.05;99986.83;1749950;81;21185;-81
2021/05/07 09:47:18;;;;;;;2.98;0.95;;;;;;;18.63;28.18;99979.85;1763524;80;21160;-80
2021/05/07 09:49:46;;;;;;;1.62;0.90;;;;;;;18.70;28.47;99974.10;1758616;81;21054;-82
2021/05/07 09:52:13;;;;;;;3.45;1.00;;;;;;;18.74;28.46;99982.93;1770835;81;21361;-81
2021/05/07 09:54:53;;;;;;;1.27;0.70;;;;;;;18.74;28.62;99970.89;1762464;81;22056;-81
2021/05/07 09:57:20;;;;;;;2.45;0.80;;;;;;;18.76;28.24;99968.85;1767721;81;21128;-81
2021/05/07 09:59:49;;;;;;;1.27;0.70;;;;;;;18.77;28.41;99970.51;1753142;81;21153;-78
2021/05/07 10:02:16;;;;;;;2.10;0.80;;;;;;;18.80;28.21;99970.64;1740129;82;21085;-80
2021/05/07 10:04:44;;;;;;;9.13;1.10;;;;;;;18.80;28.27;99967.97;1747196;81;21512;-81
2021/05/07 10:07:13;;;;;;;3.92;1.15;;;;;;;18.77;27.80;99971.84;1755365;81;22966;-80
2021/05/07 10:09:40;;;;;;;4.40;1.12;;;;;;;18.76;28.29;99967.52;1770585;81;21132;-80
2021/05/07 10:12:09;;;;;;;2.25;0.90;;;;;;;18.79;28.29;99968.47;1764961;81;21156;-80
2021/05/07 10:14:46;;;;;;;5.92;0.90;;;;;;;18.88;28.17;99966.02;1770630;81;21062;-80
2021/05/07 10:17:13;;;;;;;1.70;0.80;;;;;;;18.93;26.97;99968.16;1741514;81;20926;-80
2021/05/07 10:19:43;;;;;;;4.47;0.90;;;;;;;18.92;27.23;99962.49;1737981;81;22060;-81
2021/05/07 10:22:12;;;;;;;2.85;0.90;;;;;;;18.89;26.69;99962.84;1748493;81;21172;-79
2021/05/07 10:24:41;;;;;;;5.90;0.90;;;;;;;18.82;27.32;99976.16;1748741;80;21592;-73
2021/05/07 10:27:21;;;;;;;1.77;0.90;;;;;;;18.78;26.52;99968.66;1745236;80;21094;-79
2021/05/07 10:29:58;;;;;;;5.12;1.07;;;;;;;18.64;27.74;99974.31;1741960;81;21540;-80
2021/05/07 10:32:35;;;;;;;1.67;0.80;;;;;;;18.53;27.60;99965.41;1767377;80;21940;-82
2021/05/07 10:35:04;;;;;;;2.10;0.80;;;;;;;18.55;27.63;99965.55;1743677;81;21086;-81
2021/05/07 10:37:44;;;;;;;2.30;1.10;;;;;;;18.67;28.04;99955.24;1778291;80;21225;-83
2021/05/07 10:40:24;;;;;;;1.32;0.72;;;;;;;18.85;28.87;99942.33;1747187;81;21124;-82
2021/05/07 10:42:58;;;;;;;3.85;0.95;;;;;;;19.07;28.73;99925.81;1751429;80;20993;-72
2021/05/07 10:45:51;;;;;;;2.30;0.68;;;;;;;19.20;27.71;99919.77;1769376;81;22058;-75
2021/05/07 10:48:25;;;;;;;1.45;0.90;;;;;;;19.25;27.14;99925.41;1756812;81;21148;-76
2021/05/07 10:50:59;;;;;;;3.40;1.10;;;;;;;19.19;27.30;99916.78;1735873;81;21098;-76
2021/05/07 10:53:35;;;;;;;1.47;0.80;;;;;;;19.06;27.62;99911.28;1735156;81;21504;-75
2021/05/07 10:56:22;;;;;;;2.00;0.80;;;;;;;18.94;27.24;99910.12;1753169;81;21045;-77
2021/05/07 10:58:52;;;;;;;2.62;0.70;;;;;;;18.80;27.82;99903.23;1754876;81;22076;-77
2021/05/07 11:01:28;;;;;;;1.57;0.85;;;;;;;18.74;27.44;99909.86;1763825;80;21572;-79
2021/05/07 11:04:13;;;;;;;2.02;0.60;;;;;;;18.72;27.93;99923.44;1765185;80;21049;-77
2021/05/07 11:06:44;;;;;;;4.62;0.90;;;;;;;18.73;27.53;99930.95;1741016;81;21244;-78
2021/05/07 11:09:22;;;;;;;1.98;0.80;;;;;;;18.68;28.40;99932.82;1750089;81;21074;-73
2021/05/07 11:11:52;;;;;;;1.40;0.80;;;;;;;18.57;28.51;99911.86;1752901;80;22652;-75
2021/05/07 11:14:22;;;;;;;3.70;0.70;;;;;;;18.49;28.07;99895.39;1756738;81;21169;-72
2021/05/07 11:16:51;;;;;;;4.15;0.93;;;;;;;18.48;27.96;99903.61;1734318;82;21647;-73
2021/05/07 11:19:27;;;;;;;7.78;1.05;;;;;;;18.50;28.06;99902.91;1746491;82;21674;-73
2021/05/07 11:22:03;;;;;;;4.15;0.80;;;;;;;18.47;28.26;99917.99;1748119;82;21180;-74
2021/05/07 11:24:34;;;;;;;9.63;1.00;;;;;;;18.38;27.98;99917.25;1755402;80;22116;-72
2021/05/07 11:27:18;;;;;;;5.90;0.93;;;;;;;18.24;28.79;99913.56;1778143;80;21181;-73
2021/05/07 11:29:43;;;;;;;3.20;0.90;;;;;;;18.11;28.59;99914.67;1773462;80;21454;-73
2021/05/07 11:32:18;;;;;;;4.03;1.10;;;;;;;18.03;29.62;99914.73;1727761;83;21204;-73
2021/05/07 11:35:01;;;;;;;9.28;1.17;;;;;;;17.97;29.81;99910.14;1769853;80;21173;-74
2021/05/07 11:37:30;;;;;;;;;;;;;;;17.88;30.63;99916.06;1754171;80;22140;-74
2021/05/07 11:40:14;;;;;;;3.08;0.80;;;;;;;17.78;30.19;99907.97;1764318;80;20359;-74
2021/05/07 11:42:44;;;;;;;4.42;1.10;;;;;;;17.71;30.30;99903.84;1771669;80;21164;-75
2021/05/07 11:45:20;;;;;;;2.47;0.80;;;;;;;17.65;30.34;99906.67;1777233;80;21154;-73
2021/05/07 11:47:48;;;;;;;6.05;1.02;;;;;;;17.60;30.97;99920.25;1777303;80;21169;-74
2021/05/07 11:50:21;;;;;;;7.65;2.00;;;;;;;17.53;31.08;99907.28;1776814;80;22120;-73
2021/05/07 11:52:50;;;;;;;5.08;1.35;;;;;;;17.46;32.18;99892.47;1776436;80;21426;-73
2021/05/07 11:55:27;;;;;;;2.90;0.85;;;;;;;17.35;32.92;99912.40;1749306;80;21171;-75
2021/05/07 11:58:07;;;;;;;5.08;1.05;;;;;;;17.25;33.92;99911.80;1726858;81;21244;-74
2021/05/07 12:00:37;;;;;;;1.32;1.00;;;;;;;17.13;35.19;99907.37;1721255;82;21503;-74
2021/05/07 12:05:53;;;;;;;4.10;1.10;;;;;;;16.82;36.68;99877.19;1888507;76;22744;-73